createdAt,value
2023-04-13T00:02:19.738Z,22.90
2023-04-13T00:04:46.392Z,22.90
2023-04-13T00:07:14.884Z,22.89
2023-04-13T00:09:41.796Z,22.90
2023-04-13T00:12:10.926Z,22.90
2023-04-13T00:14:37.453Z,22.90
2023-04-13T00:17:03.993Z,22.89
2023-04-13T00:19:33.412Z,22.90
2023-04-13T00:22:00.654Z,22.90
2023-04-13T00:24:27.135Z,22.90
2023-04-13T00:26:54.592Z,22.90
2023-04-13T00:29:21.747Z,22.90
2023-04-13T00:31:48.259Z,22.90
2023-04-13T00:34:14.700Z,22.90
2023-04-13T00:36:41.165Z,22.90
2023-04-13T00:39:08.164Z,22.89
2023-04-13T00:41:37.254Z,22.90
2023-04-13T00:44:03.823Z,22.89
2023-04-13T00:46:31.477Z,22.90
2023-04-13T00:49:01.672Z,22.88
2023-04-13T00:51:30.295Z,22.89
2023-04-13T00:53:59.283Z,22.89
2023-04-13T00:56:27.312Z,22.89
2023-04-13T00:58:56.413Z,22.90
2023-04-13T01:01:23.780Z,22.89
2023-04-13T01:03:53.486Z,22.89
2023-04-13T01:06:27.900Z,22.90
2023-04-13T01:09:08.775Z,22.89
2023-04-13T01:11:42.541Z,22.88
2023-04-13T01:14:29.282Z,22.88
2023-04-13T01:17:02.497Z,22.88
2023-04-13T01:19:57.418Z,22.89
2023-04-13T01:22:28.634Z,22.86
2023-04-13T01:25:07.489Z,22.87
2023-04-13T01:27:48.003Z,22.87
2023-04-13T01:30:17.092Z,22.87
2023-04-13T01:32:45.731Z,22.86
2023-04-13T01:35:12.578Z,22.87
2023-04-13T01:37:43.271Z,22.90
2023-04-13T01:40:13.690Z,22.88
2023-04-13T01:42:47.918Z,22.88
2023-04-13T01:45:40.322Z,22.89
2023-04-13T01:48:13.040Z,22.89
2023-04-13T01:50:59.092Z,22.87
2023-04-13T01:53:43.580Z,22.87
2023-04-13T01:56:15.358Z,22.87
2023-04-13T01:58:43.182Z,22.87
2023-04-13T02:01:14.460Z,22.88
2023-04-13T02:03:43.245Z,22.88
2023-04-13T02:06:10.743Z,22.89
2023-04-13T02:08:40.608Z,22.88
2023-04-13T02:11:07.847Z,22.89
2023-04-13T02:13:34.689Z,22.88
2023-04-13T02:16:02.941Z,22.88
2023-04-13T02:18:30.535Z,22.89
2023-04-13T02:21:08.161Z,22.88
2023-04-13T02:23:40.526Z,22.89
2023-04-13T02:26:13.064Z,22.90
2023-04-13T02:28:43.154Z,22.88
2023-04-13T02:31:09.741Z,22.89
2023-04-13T02:33:37.619Z,22.89
2023-04-13T02:36:04.852Z,22.89
2023-04-13T02:38:37.415Z,22.89
2023-04-13T02:41:12.358Z,22.89
2023-04-13T02:43:38.867Z,22.89
2023-04-13T02:46:05.786Z,22.89
2023-04-13T02:48:37.019Z,22.89
2023-04-13T02:51:05.669Z,22.89
2023-04-13T02:53:36.403Z,22.89
2023-04-13T02:56:06.795Z,22.89
2023-04-13T02:58:34.145Z,22.89
2023-04-13T03:01:05.013Z,22.89
2023-04-13T03:03:33.154Z,22.89
2023-04-13T03:06:01.488Z,22.88
2023-04-13T03:08:48.488Z,22.89
2023-04-13T03:11:23.522Z,22.89
2023-04-13T03:14:22.003Z,22.88
2023-04-13T03:16:54.508Z,22.87
2023-04-13T03:19:25.973Z,22.88
2023-04-13T03:21:52.529Z,22.88
2023-04-13T03:24:27.214Z,22.88
2023-04-13T03:26:56.999Z,22.88
2023-04-13T03:29:30.123Z,22.87
2023-04-13T03:31:56.772Z,22.88
2023-04-13T03:34:23.941Z,22.88
2023-04-13T03:36:51.356Z,22.88
2023-04-13T03:39:20.196Z,22.90
2023-04-13T03:41:46.813Z,22.88
2023-04-13T03:44:13.399Z,22.90
2023-04-13T03:46:40.924Z,22.89
2023-04-13T03:49:19.738Z,22.88
2023-04-13T03:51:46.554Z,22.89
2023-04-13T03:54:14.138Z,22.88
2023-04-13T03:56:40.842Z,22.88
2023-04-13T03:59:08.549Z,22.89
2023-04-13T04:01:35.496Z,22.88
2023-04-13T04:04:02.273Z,22.88
2023-04-13T04:06:29.957Z,22.88
2023-04-13T04:09:13.982Z,22.88
2023-04-13T04:11:44.664Z,22.89
2023-04-13T04:14:12.444Z,22.89
2023-04-13T04:16:47.387Z,22.85
2023-04-13T04:19:16.513Z,22.83
2023-04-13T04:21:44.883Z,22.86
2023-04-13T04:24:20.666Z,22.86
2023-04-13T04:26:50.378Z,22.86
2023-04-13T04:29:17.764Z,22.87
2023-04-13T04:31:46.690Z,22.87
2023-04-13T04:34:16.844Z,22.86
2023-04-13T04:36:45.432Z,22.88
2023-04-13T04:39:14.353Z,22.88
2023-04-13T04:41:54.408Z,22.88
2023-04-13T04:44:30.676Z,22.87
2023-04-13T04:47:00.340Z,22.87
2023-04-13T04:49:28.068Z,22.87
2023-04-13T04:51:57.397Z,22.89
2023-04-13T04:54:24.818Z,22.88
2023-04-13T04:56:51.872Z,22.88
2023-04-13T04:59:19.863Z,22.88
2023-04-13T05:01:56.077Z,22.88
2023-04-13T05:04:22.638Z,22.87
2023-04-13T05:06:49.257Z,22.87
2023-04-13T05:09:20.592Z,22.88
2023-04-13T05:11:51.319Z,22.88
2023-04-13T05:14:19.716Z,22.88
2023-04-13T05:16:46.183Z,22.88
2023-04-13T05:19:25.062Z,22.87
2023-04-13T05:22:09.902Z,22.87
2023-04-13T05:24:42.820Z,22.87
2023-04-13T05:27:13.360Z,22.87
2023-04-13T05:29:40.614Z,22.87
2023-04-13T05:32:08.174Z,22.88
2023-04-13T05:34:38.080Z,22.89
2023-04-13T05:37:15.984Z,22.88
2023-04-13T05:39:43.514Z,22.89
2023-04-13T05:42:11.603Z,22.89
2023-04-13T05:44:43.356Z,22.89
2023-04-13T05:47:11.861Z,22.90
2023-04-13T05:49:40.312Z,22.89
2023-04-13T05:52:08.862Z,22.90
2023-04-13T05:54:41.611Z,22.89
2023-04-13T05:57:08.080Z,22.90
2023-04-13T05:59:37.514Z,22.89
2023-04-13T06:02:04.862Z,22.89
2023-04-13T06:04:31.890Z,22.91
2023-04-13T06:06:59.305Z,22.90
2023-04-13T06:09:25.863Z,22.90
2023-04-13T06:11:53.167Z,22.91
2023-04-13T06:14:20.765Z,22.91
2023-04-13T06:16:47.356Z,22.91
2023-04-13T06:19:13.948Z,22.91
2023-04-13T06:21:40.444Z,22.92
2023-04-13T06:24:07.774Z,22.91
2023-04-13T06:26:37.454Z,22.92
2023-04-13T06:32:04.655Z,22.90
2023-04-13T06:34:35.790Z,22.91
2023-04-13T06:37:03.983Z,22.91
2023-04-13T06:39:37.913Z,22.90
2023-04-13T06:42:06.517Z,22.91
2023-04-13T06:44:59.006Z,22.90
2023-04-13T06:47:43.433Z,22.91
2023-04-13T06:50:14.242Z,22.90
2023-04-13T06:52:47.306Z,22.91
2023-04-13T06:55:15.872Z,22.90
2023-04-13T06:57:42.470Z,22.91
2023-04-13T07:00:25.924Z,22.91
2023-04-13T07:02:57.372Z,22.90
2023-04-13T07:05:24.284Z,22.90
2023-04-13T07:07:53.398Z,22.90
2023-04-13T07:10:20.986Z,22.91
2023-04-13T07:12:48.074Z,22.90
2023-04-13T07:15:15.434Z,22.90
2023-04-13T07:17:42.317Z,22.90
2023-04-13T07:20:09.490Z,22.90
2023-04-13T07:22:36.262Z,22.89
2023-04-13T07:25:03.715Z,22.90
2023-04-13T07:27:30.615Z,22.89
2023-04-13T07:29:57.323Z,22.89
2023-04-13T07:32:31.510Z,22.89
2023-04-13T07:35:01.791Z,22.89
2023-04-13T07:37:31.048Z,22.88
2023-04-13T07:39:58.239Z,22.88
2023-04-13T07:42:25.463Z,22.88
2023-04-13T07:44:56.987Z,22.88
2023-04-13T07:47:25.446Z,22.88
2023-04-13T07:49:57.416Z,22.87
2023-04-13T07:52:24.491Z,22.88
2023-04-13T07:54:52.739Z,22.88
2023-04-13T07:57:21.486Z,22.87
2023-04-13T07:59:55.034Z,22.87
2023-04-13T08:02:22.710Z,22.88
2023-04-13T08:04:52.984Z,22.86
2023-04-13T08:07:24.167Z,22.88
2023-04-13T08:09:52.482Z,22.87
2023-04-13T08:12:19.712Z,22.88
2023-04-13T08:14:47.559Z,22.88
2023-04-13T08:17:14.228Z,22.88
2023-04-13T08:19:41.593Z,22.88
2023-04-13T08:22:11.841Z,22.88
2023-04-13T08:24:38.731Z,22.88
2023-04-13T08:27:07.436Z,22.89
2023-04-13T08:29:34.166Z,22.88
2023-04-13T08:32:01.648Z,22.88
2023-04-13T08:34:29.893Z,22.89
2023-04-13T08:36:57.359Z,22.89
2023-04-13T08:39:26.113Z,22.89
2023-04-13T08:41:53.252Z,22.90
2023-04-13T08:44:21.342Z,22.89
2023-04-13T08:46:52.477Z,22.90
2023-04-13T08:49:25.965Z,22.89
2023-04-13T08:52:12.679Z,22.88
2023-04-13T08:54:41.210Z,22.89
2023-04-13T08:57:16.906Z,22.89
2023-04-13T08:59:44.739Z,22.88
2023-04-13T09:02:11.945Z,22.89
2023-04-13T09:04:53.032Z,22.89
2023-04-13T09:07:32.385Z,22.89
2023-04-13T09:10:05.936Z,22.88
2023-04-13T09:12:32.619Z,22.89
2023-04-13T09:14:59.292Z,22.89
2023-04-13T09:17:35.138Z,22.89
2023-04-13T09:20:22.660Z,22.89
2023-04-13T09:22:51.662Z,22.88
2023-04-13T09:25:22.939Z,22.88
2023-04-13T09:27:49.920Z,22.89
2023-04-13T09:30:22.811Z,22.88
2023-04-13T09:33:05.146Z,22.89
2023-04-13T09:35:33.081Z,22.89
2023-04-13T09:38:00.062Z,22.89
2023-04-13T09:40:27.355Z,22.90
2023-04-13T09:42:58.843Z,22.89
2023-04-13T09:45:34.721Z,22.89
2023-04-13T09:48:03.023Z,22.89
2023-04-13T09:50:32.211Z,22.88
2023-04-13T09:53:06.335Z,22.89
2023-04-13T09:55:34.766Z,22.88
2023-04-13T09:58:15.121Z,22.88
2023-04-13T10:00:45.575Z,22.87
2023-04-13T10:03:14.157Z,22.87
2023-04-13T10:05:58.093Z,22.86
2023-04-13T10:08:37.568Z,22.85
2023-04-13T10:11:10.603Z,22.85
2023-04-13T10:13:42.951Z,22.86
2023-04-13T10:16:18.537Z,22.85
2023-04-13T10:19:01.763Z,22.86
2023-04-13T10:21:35.361Z,22.85
2023-04-13T10:26:37.641Z,22.83
2023-04-13T10:29:06.080Z,22.85
2023-04-13T10:31:47.059Z,22.86
2023-04-13T10:34:49.368Z,22.85
2023-04-13T10:37:21.582Z,22.83
2023-04-13T10:39:48.353Z,22.83
2023-04-13T10:42:17.915Z,22.83
2023-04-13T10:44:54.445Z,22.83
2023-04-13T10:47:22.604Z,22.85
2023-04-13T10:49:51.199Z,22.85
2023-04-13T10:52:17.823Z,22.85
2023-04-13T10:54:45.157Z,22.84
2023-04-13T10:57:12.590Z,22.87
2023-04-13T10:59:58.917Z,22.87
2023-04-13T11:02:31.504Z,22.86
2023-04-13T11:04:59.648Z,22.86
2023-04-13T11:07:26.870Z,22.86
2023-04-13T11:12:29.860Z,22.87
2023-04-13T11:14:56.473Z,22.87
2023-04-13T11:17:23.436Z,22.86
2023-04-13T11:19:56.106Z,22.88
2023-04-13T11:22:25.645Z,22.88
2023-04-13T11:24:53.500Z,22.88
2023-04-13T11:27:24.615Z,22.88
2023-04-13T11:29:59.267Z,22.89
2023-04-13T11:32:26.500Z,22.87
2023-04-13T11:34:53.277Z,22.88
2023-04-13T11:37:20.189Z,22.88
2023-04-13T11:39:46.688Z,22.87
2023-04-13T11:42:13.418Z,22.88
2023-04-13T11:44:40.016Z,22.88
2023-04-13T11:47:07.479Z,22.88
2023-04-13T11:49:34.279Z,22.87
2023-04-13T11:52:02.190Z,22.88
2023-04-13T11:54:30.220Z,22.88
2023-04-13T11:56:57.563Z,22.88
2023-04-13T11:59:25.099Z,22.88
2023-04-13T12:02:01.487Z,22.88
2023-04-13T12:04:37.307Z,22.89
2023-04-13T12:07:08.937Z,22.85
2023-04-13T12:15:15.471Z,22.87
2023-04-13T12:17:58.214Z,22.86
2023-04-13T12:20:39.783Z,22.87
2023-04-13T12:23:27.976Z,22.87
2023-04-13T12:26:31.984Z,22.87
2023-04-13T12:28:57.295Z,22.87
2023-04-13T12:31:24.520Z,22.87
2023-04-13T12:33:51.622Z,22.87
2023-04-13T12:36:18.125Z,22.87
2023-04-13T12:38:44.583Z,22.87
2023-04-13T12:41:12.214Z,22.87
2023-04-13T12:43:38.650Z,22.87
2023-04-13T12:46:05.240Z,22.87
2023-04-13T12:48:31.858Z,22.87
2023-04-13T12:50:58.568Z,22.88
2023-04-13T12:53:25.205Z,22.88
2023-04-13T12:55:51.677Z,22.88
2023-04-13T12:58:18.293Z,22.89
2023-04-13T13:00:44.873Z,22.89
2023-04-13T13:03:14.630Z,22.89
2023-04-13T13:05:41.967Z,22.89
2023-04-13T13:08:09.156Z,22.90
2023-04-13T13:10:37.337Z,22.90
2023-04-13T13:13:04.643Z,22.90
2023-04-13T13:15:31.814Z,22.90
2023-04-13T13:18:00.843Z,22.90
2023-04-13T13:20:27.418Z,22.91
2023-04-13T13:22:53.974Z,22.89
2023-04-13T13:25:20.529Z,22.90
2023-04-13T13:30:16.727Z,22.90
2023-04-13T13:32:43.243Z,22.91
2023-04-13T13:35:10.646Z,22.91
2023-04-13T13:37:37.211Z,22.92
2023-04-13T13:40:12.845Z,22.92
2023-04-13T13:42:50.665Z,22.95
2023-04-13T13:45:18.802Z,22.94
2023-04-13T13:47:51.338Z,22.96
2023-04-13T13:50:18.535Z,22.96
2023-04-13T13:52:59.724Z,22.96
2023-04-13T13:55:31.949Z,22.96
2023-04-13T13:57:58.710Z,22.97
2023-04-13T14:00:25.802Z,22.98
2023-04-13T14:02:53.610Z,22.99
2023-04-13T14:05:21.879Z,22.99
2023-04-13T14:07:48.509Z,23.00
2023-04-13T14:10:15.515Z,23.01
2023-04-13T14:12:45.154Z,23.04
2023-04-13T14:15:12.627Z,23.04
2023-04-13T14:17:39.936Z,23.04
2023-04-13T14:20:09.230Z,23.05
2023-04-13T14:22:37.034Z,23.06
2023-04-13T14:25:04.333Z,23.07
2023-04-13T14:27:30.956Z,23.09
2023-04-13T14:29:57.465Z,23.09
2023-04-13T14:32:24.072Z,23.12
2023-04-13T14:34:50.591Z,23.12
2023-04-13T14:37:17.309Z,23.15
2023-04-13T14:39:43.908Z,23.16
2023-04-13T14:42:12.192Z,23.17
2023-04-13T14:44:38.689Z,23.16
2023-04-13T14:47:08.734Z,23.17
2023-04-13T14:49:37.094Z,23.17
2023-04-13T14:52:04.110Z,23.18
2023-04-13T14:54:30.760Z,23.19
2023-04-13T14:56:57.943Z,23.20
2023-04-13T14:59:25.498Z,23.21
2023-04-13T15:01:52.137Z,23.21
2023-04-13T15:04:19.707Z,23.22
2023-04-13T15:06:47.707Z,23.23
2023-04-13T15:09:15.584Z,23.23
2023-04-13T15:11:43.268Z,23.24
2023-04-13T15:14:10.001Z,23.23
2023-04-13T15:16:37.128Z,23.24
2023-04-13T15:19:03.914Z,23.26
2023-04-13T15:21:31.697Z,23.26
2023-04-13T15:23:58.172Z,23.26
2023-04-13T15:26:24.712Z,23.27
2023-04-13T15:28:51.169Z,23.27
2023-04-13T15:31:17.698Z,23.27
2023-04-13T15:33:44.363Z,23.27
2023-04-13T15:36:16.146Z,23.29
2023-04-13T15:38:43.278Z,23.28
2023-04-13T15:41:11.177Z,23.29
2023-04-13T15:43:38.197Z,23.30
2023-04-13T15:46:04.984Z,23.30
2023-04-13T15:48:31.867Z,23.30
2023-04-13T15:51:01.753Z,23.30
2023-04-13T15:53:28.552Z,23.31
2023-04-13T15:55:55.243Z,23.31
2023-04-13T15:58:22.314Z,23.32
2023-04-13T16:01:09.005Z,23.33
2023-04-13T16:03:36.223Z,23.32
2023-04-13T16:06:02.953Z,23.34
2023-04-13T16:08:29.541Z,23.32
2023-04-13T16:10:56.366Z,23.32
2023-04-13T16:13:23.051Z,23.33
2023-04-13T16:15:55.975Z,23.33
2023-04-13T16:18:30.149Z,23.33
2023-04-13T16:21:04.075Z,23.33
2023-04-13T16:23:34.415Z,23.34
2023-04-13T16:26:01.938Z,23.34
2023-04-13T16:28:29.705Z,23.34
2023-04-13T16:30:56.506Z,23.34
2023-04-13T16:33:23.009Z,23.36
2023-04-13T16:35:49.489Z,23.35
2023-04-13T16:38:16.040Z,23.36
2023-04-13T16:40:43.607Z,23.37
2023-04-13T16:43:10.098Z,23.38
2023-04-13T16:45:37.583Z,23.38
2023-04-13T16:48:05.145Z,23.39
2023-04-13T16:50:32.488Z,23.42
2023-04-13T16:52:59.279Z,23.42
2023-04-13T16:55:28.259Z,23.44
2023-04-13T16:57:55.344Z,23.44
2023-04-13T17:00:22.240Z,23.45
2023-04-13T17:02:50.081Z,23.47
2023-04-13T17:05:16.997Z,23.47
2023-04-13T17:07:44.666Z,23.47
2023-04-13T17:10:13.506Z,23.48
2023-04-13T17:12:40.738Z,23.49
2023-04-13T17:15:08.091Z,23.49
2023-04-13T17:17:35.056Z,23.49
2023-04-13T17:20:02.165Z,23.49
2023-04-13T17:22:28.791Z,23.48
2023-04-13T17:24:55.791Z,23.50
2023-04-13T17:27:22.872Z,23.50
2023-04-13T17:29:49.941Z,23.50
2023-04-13T17:32:16.886Z,23.49
2023-04-13T17:34:44.851Z,23.49
2023-04-13T17:37:11.899Z,23.49
2023-04-13T17:39:42.279Z,23.49
2023-04-13T17:42:09.693Z,23.48
2023-04-13T17:44:36.617Z,23.48
2023-04-13T17:47:03.548Z,23.47
2023-04-13T17:49:30.151Z,23.48
2023-04-13T17:51:59.340Z,23.48
2023-04-13T17:54:27.121Z,23.46
2023-04-13T17:56:54.604Z,23.46
2023-04-13T17:59:22.100Z,23.46
2023-04-13T18:01:52.488Z,23.46
2023-04-13T18:04:20.000Z,23.43
2023-04-13T18:06:46.942Z,23.43
2023-04-13T18:09:14.371Z,23.42
2023-04-13T18:11:41.048Z,23.42
2023-04-13T18:14:08.997Z,23.41
2023-04-13T18:16:36.154Z,23.39
2023-04-13T18:19:03.011Z,23.39
2023-04-13T18:21:30.066Z,23.37
2023-04-13T18:23:57.032Z,23.37
2023-04-13T18:26:24.787Z,23.36
2023-04-13T18:28:51.537Z,23.34
2023-04-13T18:31:18.264Z,23.34
2023-04-13T18:33:45.177Z,23.33
2023-04-13T18:36:19.562Z,23.33
2023-04-13T18:38:46.409Z,23.31
2023-04-13T18:41:13.442Z,23.30
2023-04-13T18:43:40.716Z,23.30
2023-04-13T18:46:07.973Z,23.29
2023-04-13T18:48:35.633Z,23.28
2023-04-13T18:51:03.364Z,23.28
2023-04-13T18:53:30.831Z,23.27
2023-04-13T18:55:58.374Z,23.27
2023-04-13T18:58:24.996Z,23.25
2023-04-13T19:00:51.460Z,23.26
2023-04-13T19:03:18.021Z,23.24
2023-04-13T19:05:44.605Z,23.25
2023-04-13T19:08:13.353Z,23.23
2023-04-13T19:10:42.361Z,23.22
2023-04-13T19:13:09.034Z,23.22
2023-04-13T19:15:35.873Z,23.22
2023-04-13T19:18:04.177Z,23.20
2023-04-13T19:20:31.056Z,23.19
2023-04-13T19:22:57.601Z,23.19
2023-04-13T19:25:24.116Z,23.18
2023-04-13T19:27:50.684Z,23.17
2023-04-13T19:30:18.915Z,23.17
2023-04-13T19:32:47.166Z,23.18
2023-04-13T19:35:14.197Z,23.16
2023-04-13T19:37:41.815Z,23.16
2023-04-13T19:40:09.909Z,23.15
2023-04-13T19:42:36.934Z,23.16
2023-04-13T19:45:04.035Z,23.14
2023-04-13T19:47:30.685Z,23.14
2023-04-13T19:49:57.187Z,23.14
2023-04-13T19:52:25.002Z,23.12
2023-04-13T19:54:51.630Z,23.13
2023-04-13T19:57:18.493Z,23.12
2023-04-13T19:59:44.997Z,23.12
2023-04-13T20:02:11.770Z,23.11
2023-04-13T20:04:38.709Z,23.11
2023-04-13T20:07:05.612Z,23.11
2023-04-13T20:09:32.171Z,23.10
2023-04-13T20:11:58.905Z,23.10
2023-04-13T20:14:25.909Z,23.11
2023-04-13T20:16:52.589Z,23.11
2023-04-13T20:19:20.206Z,23.09
2023-04-13T20:21:46.806Z,23.10
2023-04-13T20:24:13.799Z,23.09
2023-04-13T20:26:40.498Z,23.10
2023-04-13T20:29:07.011Z,23.09
2023-04-13T20:31:33.881Z,23.09
2023-04-13T20:34:03.020Z,23.08
2023-04-13T20:36:30.535Z,23.08
2023-04-13T20:39:00.531Z,23.08
2023-04-13T20:41:29.747Z,23.07
2023-04-13T20:43:56.317Z,23.06
2023-04-13T20:46:25.261Z,23.07
2023-04-13T20:48:52.473Z,23.06
2023-04-13T20:51:19.543Z,23.05
2023-04-13T20:53:46.034Z,23.05
2023-04-13T20:56:12.754Z,23.06
2023-04-13T20:58:39.294Z,23.06
2023-04-13T21:01:05.824Z,23.06
2023-04-13T21:03:32.833Z,23.05
2023-04-13T21:06:00.399Z,23.05
2023-04-13T21:08:27.451Z,23.05
2023-04-13T21:10:54.104Z,23.05
2023-04-13T21:13:22.170Z,23.06
2023-04-13T21:15:48.719Z,23.05
2023-04-13T21:18:15.340Z,23.04
2023-04-13T21:20:43.496Z,23.04
2023-04-13T21:23:10.282Z,23.04
2023-04-13T21:25:37.084Z,23.04
2023-04-13T21:28:03.671Z,23.03
2023-04-13T21:30:30.386Z,23.04
2023-04-13T21:32:56.977Z,23.04
2023-04-13T21:35:23.665Z,23.04
2023-04-13T21:37:50.313Z,23.03
2023-04-13T21:40:18.168Z,23.03
2023-04-13T21:42:45.036Z,23.03
2023-04-13T21:45:11.748Z,23.02
2023-04-13T21:47:38.273Z,23.02
2023-04-13T21:50:05.733Z,23.02
2023-04-13T21:52:32.328Z,23.02
2023-04-13T21:55:03.028Z,23.01
2023-04-13T21:57:29.786Z,23.01
2023-04-13T21:59:56.344Z,23.01
2023-04-13T22:02:24.294Z,23.01
2023-04-13T22:04:51.384Z,23.01
2023-04-13T22:07:20.468Z,23.01
2023-04-13T22:09:52.453Z,23.01
2023-04-13T22:12:18.915Z,23.00
2023-04-13T22:14:45.562Z,23.00
2023-04-13T22:17:13.230Z,23.00
2023-04-13T22:19:41.125Z,23.00
2023-04-13T22:22:07.632Z,23.01
2023-04-13T22:24:34.077Z,23.00
2023-04-13T22:27:04.472Z,22.99
2023-04-13T22:29:31.138Z,22.99
2023-04-13T22:31:59.331Z,22.98
2023-04-13T22:34:28.596Z,22.99
2023-04-13T22:36:55.206Z,22.98
2023-04-13T22:39:21.705Z,22.98
2023-04-13T22:41:48.196Z,22.98
2023-04-13T22:44:14.698Z,22.98
2023-04-13T22:46:41.232Z,22.99
2023-04-13T22:49:07.753Z,22.98
2023-04-13T22:51:39.079Z,22.97
2023-04-13T22:54:06.082Z,22.97
2023-04-13T22:56:32.655Z,22.97
2023-04-13T22:58:59.696Z,22.98
2023-04-13T23:01:26.517Z,22.97
2023-04-13T23:03:53.318Z,22.97
2023-04-13T23:06:20.056Z,22.97
2023-04-13T23:08:47.439Z,22.97
2023-04-13T23:11:13.921Z,22.97
2023-04-13T23:13:41.745Z,22.96
2023-04-13T23:16:08.308Z,22.96
2023-04-13T23:18:34.886Z,22.95
2023-04-13T23:21:09.726Z,22.96
2023-04-13T23:23:36.982Z,22.95
2023-04-13T23:26:03.659Z,22.95
2023-04-13T23:28:30.188Z,22.94
2023-04-13T23:31:06.591Z,22.95
2023-04-13T23:33:33.946Z,22.94
2023-04-13T23:36:01.571Z,22.94
2023-04-13T23:38:28.700Z,22.94
2023-04-13T23:40:55.626Z,22.94
2023-04-13T23:43:22.827Z,22.93
2023-04-13T23:45:51.368Z,22.93
2023-04-13T23:48:19.096Z,22.93
2023-04-13T23:50:45.602Z,22.93
2023-04-13T23:53:12.178Z,22.93
2023-04-13T23:55:38.919Z,22.93
2023-04-13T23:58:05.609Z,22.93
